Ilha das Flores, Brazil
Current Conditions -  °F | °C
As of 5:00 PM on Thursday 18 Dec 2014 (Local Time) from SBAR Reporting Station
Broken Clouds Broken Clouds  
Wind Chill: 79°   Ceiling: 10000
Heat Index: 82°   Visibility: 6mi
Dew Point: 72°   Wind: 10mph
Humidity: 78%   Direction: 110°ESE
Pressure: 29.85"   Gusts: NA
Location:  10.44°S, 36.54°W
Report Text: SBAR 182000Z 11009KT 9999 SCT015 BKN100 26/22 Q1011
Loading
Personal Weather Stations






























Interactive Weather Map New forecast layout! Learn more

10-Day Weather Forecast

Advertisements
Track Severe Weather on mobile